createdAt,value
2018-12-24T00:00:26.836Z,0.50
2018-12-24T00:02:53.633Z,1.20
2018-12-24T00:05:20.367Z,0.30
2018-12-24T00:07:47.132Z,0.30
2018-12-24T00:10:13.880Z,0.30
2018-12-24T00:12:40.634Z,0.40
2018-12-24T00:15:07.534Z,0.30
2018-12-24T00:17:34.283Z,0.30
2018-12-24T00:20:01.025Z,0.40
2018-12-24T00:22:27.768Z,0.30
2018-12-24T00:24:54.500Z,0.87
2018-12-24T00:27:21.252Z,0.40
2018-12-24T00:29:47.988Z,0.40
2018-12-24T00:32:14.743Z,0.30
2018-12-24T00:34:41.480Z,0.67
2018-12-24T00:37:08.236Z,0.40
2018-12-24T00:39:34.968Z,1.17
2018-12-24T00:42:01.697Z,2.10
2018-12-24T00:44:28.453Z,0.60
2018-12-24T00:46:55.201Z,1.47
2018-12-24T00:49:21.953Z,0.30
2018-12-24T00:51:48.718Z,0.30
2018-12-24T00:54:15.472Z,0.30
2018-12-24T00:56:42.209Z,0.30
2018-12-24T00:59:08.980Z,0.40
2018-12-24T01:01:35.716Z,0.40
2018-12-24T01:04:02.480Z,0.30
2018-12-24T01:06:29.215Z,0.83
2018-12-24T01:08:55.970Z,0.37
2018-12-24T01:11:22.712Z,0.40
2018-12-24T01:13:49.528Z,0.50
2018-12-24T01:16:16.314Z,0.30
2018-12-24T01:18:43.066Z,0.43
2018-12-24T01:21:09.833Z,0.70
2018-12-24T01:23:36.588Z,0.60
2018-12-24T01:26:03.341Z,0.30
2018-12-24T01:28:30.092Z,0.30
2018-12-24T01:30:56.833Z,1.97
2018-12-24T01:33:23.596Z,0.30
2018-12-24T01:35:50.332Z,0.43
2018-12-24T01:38:17.084Z,3.90
2018-12-24T01:40:43.827Z,6.13
2018-12-24T01:43:10.593Z,3.85
2018-12-24T01:45:37.331Z,4.53
2018-12-24T01:48:04.102Z,0.70
2018-12-24T01:50:30.853Z,0.80
2018-12-24T01:52:57.603Z,1.63
2018-12-24T01:55:24.385Z,0.40
2018-12-24T01:57:51.132Z,0.30
2018-12-24T02:00:17.876Z,0.40
2018-12-24T02:02:44.616Z,0.30
2018-12-24T02:05:11.393Z,0.30
2018-12-24T02:07:38.132Z,0.30
2018-12-24T02:10:04.929Z,0.43
2018-12-24T02:12:31.665Z,0.30
2018-12-24T02:14:58.412Z,0.40
2018-12-24T02:17:25.151Z,0.30
2018-12-24T02:19:51.897Z,0.63
2018-12-24T02:22:18.630Z,0.50
2018-12-24T02:24:45.376Z,2.00
2018-12-24T02:27:12.110Z,0.70
2018-12-24T02:29:38.872Z,1.03
2018-12-24T02:32:05.604Z,0.60
2018-12-24T02:34:32.356Z,0.30
2018-12-24T02:36:59.097Z,1.53
2018-12-24T02:39:25.886Z,0.83
2018-12-24T02:41:52.612Z,0.40
2018-12-24T02:44:19.370Z,0.40
2018-12-24T02:46:46.125Z,3.70
2018-12-24T02:49:12.874Z,0.45
2018-12-24T02:51:39.623Z,0.60
2018-12-24T02:54:06.385Z,0.40
2018-12-24T02:56:33.125Z,0.77
2018-12-24T02:58:59.880Z,0.50
2018-12-24T03:01:26.634Z,0.40
2018-12-24T03:03:53.372Z,1.70
2018-12-24T03:06:20.128Z,0.80
2018-12-24T03:08:46.882Z,0.50
2018-12-24T03:11:13.630Z,1.10
2018-12-24T03:13:40.361Z,1.15
2018-12-24T03:16:07.131Z,0.43
2018-12-24T03:18:33.872Z,0.40
2018-12-24T03:21:00.621Z,0.40
2018-12-24T03:23:27.364Z,1.43
2018-12-24T03:25:54.112Z,0.40
2018-12-24T03:28:20.870Z,0.40
2018-12-24T03:30:47.630Z,0.40
2018-12-24T03:33:14.402Z,0.40
2018-12-24T03:35:41.168Z,0.40
2018-12-24T03:38:07.912Z,0.40
2018-12-24T03:40:34.660Z,0.50
2018-12-24T03:43:01.400Z,0.57
2018-12-24T03:45:28.167Z,0.53
2018-12-24T03:47:54.897Z,0.50
2018-12-24T03:50:21.669Z,0.83
2018-12-24T03:52:48.645Z,0.70
2018-12-24T03:55:15.412Z,0.83
2018-12-24T03:57:42.160Z,0.70
2018-12-24T04:00:08.932Z,0.70
2018-12-24T04:02:35.685Z,0.88
2018-12-24T04:05:02.463Z,0.70
2018-12-24T04:07:29.200Z,0.60
2018-12-24T04:09:55.956Z,0.70
2018-12-24T04:12:22.712Z,0.70
2018-12-24T04:14:49.467Z,0.70
2018-12-24T04:17:16.229Z,0.60
2018-12-24T04:19:42.978Z,0.70
2018-12-24T04:22:09.733Z,0.80
2018-12-24T04:24:36.515Z,0.70
2018-12-24T04:27:03.253Z,0.97
2018-12-24T04:29:29.992Z,0.80
2018-12-24T04:31:56.880Z,0.70
2018-12-24T04:34:23.679Z,0.70
2018-12-24T04:36:50.412Z,0.80
2018-12-24T04:39:17.169Z,1.00
2018-12-24T04:41:43.924Z,0.97
2018-12-24T04:44:10.670Z,0.80
2018-12-24T04:46:37.466Z,0.85
2018-12-24T04:49:04.223Z,0.67
2018-12-24T04:51:31.010Z,0.90
2018-12-24T04:53:57.750Z,0.60
2018-12-24T04:56:24.515Z,0.70
2018-12-24T04:58:51.260Z,0.70
2018-12-24T05:01:18.026Z,0.60
2018-12-24T05:03:44.752Z,0.70
2018-12-24T05:06:11.526Z,0.70
2018-12-24T05:08:38.280Z,1.30
2018-12-24T05:11:05.037Z,1.00
2018-12-24T05:13:31.793Z,0.80
2018-12-24T05:15:58.629Z,0.70
2018-12-24T05:18:25.392Z,0.80
2018-12-24T05:20:52.157Z,0.60
2018-12-24T05:23:18.910Z,0.60
2018-12-24T05:25:45.657Z,0.60
2018-12-24T05:28:12.416Z,0.60
2018-12-24T05:30:39.157Z,0.60
2018-12-24T05:33:05.916Z,0.73
2018-12-24T05:35:32.668Z,0.60
2018-12-24T05:37:59.424Z,0.70
2018-12-24T05:40:26.160Z,1.10
2018-12-24T05:42:52.940Z,3.33
2018-12-24T05:45:19.694Z,0.60
2018-12-24T05:47:46.495Z,0.60
2018-12-24T05:50:13.237Z,0.67
2018-12-24T05:52:40.013Z,0.93
2018-12-24T05:55:06.791Z,1.80
2018-12-24T05:57:33.567Z,0.60
2018-12-24T06:00:00.304Z,0.70
2018-12-24T06:02:27.152Z,0.87
2018-12-24T06:04:53.898Z,0.77
2018-12-24T06:07:20.721Z,0.70
2018-12-24T06:09:47.464Z,0.97
2018-12-24T06:12:14.308Z,1.13
2018-12-24T06:14:41.259Z,0.70
2018-12-24T06:17:08.049Z,0.63
2018-12-24T06:19:34.904Z,0.70
2018-12-24T06:22:01.674Z,0.80
2018-12-24T06:24:28.413Z,0.70
2018-12-24T06:26:55.184Z,0.77
2018-12-24T06:29:21.925Z,0.80
2018-12-24T06:31:48.782Z,0.85
2018-12-24T06:34:15.537Z,0.70
2018-12-24T06:36:42.288Z,1.67
2018-12-24T06:39:09.044Z,0.93
2018-12-24T06:41:35.780Z,0.93
2018-12-24T06:44:06.741Z,1.10
2018-12-24T06:46:29.311Z,1.30
2018-12-24T06:48:56.073Z,1.30
2018-12-24T06:51:22.916Z,1.10
2018-12-24T06:53:49.596Z,0.80
2018-12-24T06:56:16.351Z,0.77
2018-12-24T06:58:43.105Z,0.97
2018-12-24T07:01:09.849Z,0.80
2018-12-24T07:03:36.616Z,1.00
2018-12-24T07:06:03.365Z,1.17
2018-12-24T07:08:30.142Z,1.00
2018-12-24T07:10:56.892Z,1.20
2018-12-24T07:13:23.663Z,1.40
2018-12-24T07:15:50.400Z,1.50
2018-12-24T07:18:17.169Z,1.33
2018-12-24T07:20:43.908Z,1.57
2018-12-24T07:23:10.696Z,1.90
2018-12-24T07:25:37.450Z,2.10
2018-12-24T07:28:04.216Z,2.10
2018-12-24T07:30:30.985Z,2.30
2018-12-24T07:32:57.749Z,2.03
2018-12-24T07:35:24.497Z,3.97
2018-12-24T07:37:51.364Z,2.43
2018-12-24T07:40:18.104Z,2.90
2018-12-24T07:42:44.889Z,2.67
2018-12-24T07:45:11.814Z,3.00
2018-12-24T07:47:38.504Z,3.03
2018-12-24T07:50:05.316Z,2.50
2018-12-24T07:52:32.080Z,3.20
2018-12-24T07:54:58.820Z,3.40
2018-12-24T07:57:25.565Z,3.13
2018-12-24T07:59:52.345Z,3.30
2018-12-24T08:02:19.111Z,2.80
2018-12-24T08:04:45.845Z,3.60
2018-12-24T08:07:12.665Z,3.20
2018-12-24T08:09:39.409Z,3.40
2018-12-24T08:12:06.196Z,3.37
2018-12-24T08:14:33.469Z,4.07
2018-12-24T08:16:59.689Z,3.10
2018-12-24T08:19:26.428Z,2.80
2018-12-24T08:21:53.197Z,3.20
2018-12-24T08:24:20.032Z,3.60
2018-12-24T08:26:46.680Z,3.70
2018-12-24T08:29:13.445Z,4.17
2018-12-24T08:31:40.212Z,3.67
2018-12-24T08:34:07.044Z,3.30
2018-12-24T08:36:33.814Z,4.20
2018-12-24T08:39:00.569Z,3.03
2018-12-24T08:41:27.329Z,3.53
2018-12-24T08:43:54.090Z,3.70
2018-12-24T08:46:20.971Z,3.47
2018-12-24T08:48:47.743Z,3.17
2018-12-24T08:51:14.538Z,3.10
2018-12-24T08:53:41.312Z,4.10
2018-12-24T08:56:08.057Z,3.30
2018-12-24T08:58:34.848Z,3.80
2018-12-24T09:01:01.580Z,3.35
2018-12-24T09:03:28.342Z,3.77
2018-12-24T09:05:55.143Z,3.50
2018-12-24T09:08:21.924Z,3.10
2018-12-24T09:10:48.788Z,3.10
2018-12-24T09:13:15.556Z,2.93
2018-12-24T09:15:42.295Z,3.80
2018-12-24T09:18:09.117Z,2.80
2018-12-24T09:20:35.932Z,2.80
2018-12-24T09:23:02.696Z,3.20
2018-12-24T09:25:29.447Z,2.93
2018-12-24T09:27:56.292Z,4.20
2018-12-24T09:30:23.308Z,3.70
2018-12-24T09:32:50.048Z,4.33
2018-12-24T09:35:16.812Z,3.53
2018-12-24T09:37:43.580Z,4.30
2018-12-24T09:40:12.717Z,4.03
2018-12-24T09:42:39.477Z,3.50
2018-12-24T09:45:06.316Z,4.30
2018-12-24T09:47:33.148Z,5.30
2018-12-24T09:49:59.908Z,3.50
2018-12-24T09:52:26.744Z,3.03
2018-12-24T09:54:53.522Z,3.60
2018-12-24T09:57:20.312Z,3.60
2018-12-24T09:59:47.076Z,4.90
2018-12-24T10:02:13.877Z,3.30
2018-12-24T10:04:47.376Z,5.45
2018-12-24T10:07:37.096Z,3.90
2018-12-24T10:10:09.529Z,3.60
2018-12-24T10:12:36.261Z,3.00
2018-12-24T10:15:07.986Z,2.93
2018-12-24T10:17:29.827Z,3.10
2018-12-24T10:19:56.599Z,2.57
2018-12-24T10:22:23.337Z,2.63
2018-12-24T10:24:50.218Z,3.03
2018-12-24T10:27:17.025Z,2.53
2018-12-24T10:29:43.941Z,3.33
2018-12-24T10:32:10.717Z,2.97
2018-12-24T10:34:37.620Z,3.53
2018-12-24T10:37:04.361Z,4.20
2018-12-24T10:39:31.128Z,4.53
2018-12-24T10:41:57.880Z,3.00
2018-12-24T10:44:24.640Z,3.33
2018-12-24T10:46:51.417Z,2.83
2018-12-24T10:49:18.168Z,2.87
2018-12-24T10:51:44.948Z,4.73
2018-12-24T10:54:11.760Z,2.87
2018-12-24T10:56:39.874Z,3.50
2018-12-24T10:59:05.299Z,2.80
2018-12-24T11:01:32.079Z,2.40
2018-12-24T11:03:58.849Z,3.30
2018-12-24T11:06:25.611Z,2.87
2018-12-24T11:08:52.453Z,2.97
2018-12-24T11:11:19.280Z,3.13
2018-12-24T11:13:46.049Z,8.50
2018-12-24T11:16:12.911Z,2.93
2018-12-24T11:18:39.648Z,2.60
2018-12-24T11:21:06.422Z,2.60
2018-12-24T11:23:33.292Z,2.50
2018-12-24T11:26:00.057Z,2.67
2018-12-24T11:28:26.788Z,2.63
2018-12-24T11:30:53.660Z,3.40
2018-12-24T11:33:20.401Z,2.90
2018-12-24T11:35:47.181Z,3.20
2018-12-24T11:38:13.966Z,3.93
2018-12-24T11:40:40.780Z,1.73
2018-12-24T11:43:07.536Z,2.07
2018-12-24T11:45:36.057Z,2.77
2018-12-24T11:48:01.176Z,2.23
2018-12-24T11:50:27.984Z,2.23
2018-12-24T11:52:54.794Z,1.97
2018-12-24T11:55:21.641Z,2.23
2018-12-24T11:57:48.387Z,2.33
2018-12-24T12:00:15.160Z,2.10
2018-12-24T12:02:41.941Z,2.25
2018-12-24T12:05:08.690Z,2.63
2018-12-24T12:07:35.456Z,4.87
2018-12-24T12:10:02.268Z,3.10
2018-12-24T12:12:29.133Z,2.20
2018-12-24T12:14:55.890Z,2.00
2018-12-24T12:17:22.651Z,2.50
2018-12-24T12:19:49.420Z,3.10
2018-12-24T12:22:16.288Z,1.97
2018-12-24T12:24:43.135Z,4.70
2018-12-24T12:27:09.896Z,2.30
2018-12-24T12:29:36.747Z,2.60
2018-12-24T12:32:03.579Z,2.63
2018-12-24T12:34:30.325Z,4.17
2018-12-24T12:36:57.098Z,2.10
2018-12-24T12:39:23.913Z,2.10
2018-12-24T12:41:50.721Z,2.50
2018-12-24T12:44:17.464Z,2.37
2018-12-24T12:46:44.264Z,2.40
2018-12-24T12:49:11.045Z,4.83
2018-12-24T12:51:37.805Z,2.73
2018-12-24T12:54:04.533Z,2.30
2018-12-24T12:56:31.288Z,2.20
2018-12-24T12:58:58.100Z,2.87
2018-12-24T13:01:24.853Z,2.37
2018-12-24T13:03:51.588Z,2.67
2018-12-24T13:06:18.376Z,2.73
2018-12-24T13:08:45.113Z,2.90
2018-12-24T13:11:11.988Z,2.43
2018-12-24T13:13:38.728Z,3.47
2018-12-24T13:16:05.509Z,2.63
2018-12-24T13:18:32.512Z,2.23
2018-12-24T13:20:59.273Z,3.50
2018-12-24T13:23:26.133Z,2.50
2018-12-24T13:25:52.877Z,2.73
2018-12-24T13:28:19.647Z,3.02
2018-12-24T13:30:46.433Z,2.92
2018-12-24T13:33:13.202Z,3.10
2018-12-24T13:35:39.990Z,2.50
2018-12-24T13:38:06.758Z,3.92
2018-12-24T13:40:33.621Z,2.10
2018-12-24T13:43:00.380Z,2.30
2018-12-24T13:45:27.124Z,2.50
2018-12-24T13:47:53.938Z,1.77
2018-12-24T13:50:20.685Z,2.70
2018-12-24T13:52:47.488Z,1.87
2018-12-24T13:55:14.260Z,2.02
2018-12-24T13:57:41.021Z,2.27
2018-12-24T14:00:07.768Z,3.03
2018-12-24T14:02:34.572Z,5.10
2018-12-24T14:05:01.367Z,3.80
2018-12-24T14:07:28.094Z,5.40
2018-12-24T14:09:54.924Z,5.10
2018-12-24T14:12:21.694Z,3.70
2018-12-24T14:14:48.456Z,4.23
2018-12-24T14:17:15.333Z,5.00
2018-12-24T14:19:42.161Z,5.00
2018-12-24T14:22:08.917Z,4.03
2018-12-24T14:24:35.877Z,3.70
2018-12-24T14:27:02.635Z,3.80
2018-12-24T14:29:29.433Z,3.10
2018-12-24T14:31:56.169Z,3.73
2018-12-24T14:34:22.931Z,4.07
2018-12-24T14:36:49.741Z,4.73
2018-12-24T14:39:16.516Z,4.13
2018-12-24T14:41:43.328Z,5.27
2018-12-24T14:44:10.085Z,5.17
2018-12-24T14:46:36.907Z,4.27
2018-12-24T14:49:03.676Z,4.33
2018-12-24T14:51:30.488Z,4.47
2018-12-24T14:53:57.252Z,4.67
2018-12-24T14:56:24.068Z,4.80
2018-12-24T14:58:51.084Z,6.30
2018-12-24T15:01:17.861Z,4.10
2018-12-24T15:03:44.661Z,4.30
2018-12-24T15:06:11.554Z,3.77
2018-12-24T15:08:38.396Z,4.77
2018-12-24T15:11:05.152Z,8.87
2018-12-24T15:13:31.914Z,4.40
2018-12-24T15:15:58.652Z,3.60
2018-12-24T15:18:25.457Z,3.20
2018-12-24T15:20:52.220Z,3.03
2018-12-24T15:23:19.060Z,3.97
2018-12-24T15:25:45.864Z,6.47
2018-12-24T15:28:12.729Z,3.53
2018-12-24T15:30:39.552Z,4.33
2018-12-24T15:33:06.416Z,4.07
2018-12-24T15:35:33.156Z,2.73
2018-12-24T15:38:00.012Z,4.13
2018-12-24T15:40:26.776Z,3.47
2018-12-24T15:42:53.572Z,3.47
2018-12-24T15:45:20.332Z,3.57
2018-12-24T15:47:47.088Z,3.13
2018-12-24T15:50:13.929Z,3.50
2018-12-24T15:52:40.676Z,9.37
2018-12-24T15:55:07.448Z,3.57
2018-12-24T15:57:34.304Z,3.00
2018-12-24T16:00:01.080Z,3.40
2018-12-24T16:02:27.820Z,5.63
2018-12-24T16:04:54.654Z,5.33
2018-12-24T16:07:21.405Z,4.43
2018-12-24T16:09:48.192Z,4.50
2018-12-24T16:12:14.986Z,5.83
2018-12-24T16:14:41.832Z,5.55
2018-12-24T16:17:08.613Z,5.20
2018-12-24T16:19:35.381Z,5.85
2018-12-24T16:22:02.128Z,5.17
2018-12-24T16:24:28.896Z,4.20
2018-12-24T16:26:55.636Z,4.10
2018-12-24T16:29:22.412Z,5.37
2018-12-24T16:31:49.149Z,4.37
2018-12-24T16:34:15.918Z,3.50
2018-12-24T16:36:42.667Z,3.53
2018-12-24T16:39:09.456Z,4.03
2018-12-24T16:41:36.200Z,3.60
2018-12-24T16:44:02.977Z,5.07
2018-12-24T16:46:29.737Z,4.47
2018-12-24T16:48:56.497Z,5.67
2018-12-24T16:51:23.325Z,4.87
2018-12-24T16:53:50.101Z,5.33
2018-12-24T16:56:16.853Z,5.37
2018-12-24T16:58:43.629Z,6.47
2018-12-24T17:01:10.367Z,5.60
2018-12-24T17:03:37.134Z,4.43
2018-12-24T17:06:03.904Z,4.00
2018-12-24T17:08:30.660Z,3.43
2018-12-24T17:10:57.453Z,4.43
2018-12-24T17:13:24.248Z,3.10
2018-12-24T17:15:50.959Z,3.03
2018-12-24T17:18:17.744Z,2.57
2018-12-24T17:20:44.504Z,5.93
2018-12-24T17:23:11.284Z,5.43
2018-12-24T17:25:38.064Z,2.40
2018-12-24T17:28:04.825Z,2.03
2018-12-24T17:30:31.581Z,1.83
2018-12-24T17:32:58.356Z,2.37
2018-12-24T17:35:25.097Z,1.83
2018-12-24T17:37:51.864Z,1.60
2018-12-24T17:40:18.635Z,1.87
2018-12-24T17:42:45.449Z,2.40
2018-12-24T17:45:12.227Z,1.80
2018-12-24T17:47:38.957Z,1.30
2018-12-24T17:50:06.010Z,2.23
2018-12-24T17:52:32.777Z,1.47
2018-12-24T17:54:59.584Z,3.20
2018-12-24T17:57:26.352Z,2.57
2018-12-24T17:59:53.114Z,1.20
2018-12-24T18:02:19.864Z,2.87
2018-12-24T18:04:46.642Z,1.30
2018-12-24T18:07:13.397Z,1.47
2018-12-24T18:09:40.180Z,1.70
2018-12-24T18:12:06.949Z,2.50
2018-12-24T18:14:33.816Z,3.50
2018-12-24T18:17:00.588Z,1.90
2018-12-24T18:19:27.355Z,2.00
2018-12-24T18:21:54.124Z,2.33
2018-12-24T18:24:20.876Z,2.13
2018-12-24T18:26:47.676Z,2.53
2018-12-24T18:29:14.450Z,1.90
2018-12-24T18:31:41.220Z,1.90
2018-12-24T18:34:07.980Z,2.30
2018-12-24T18:36:34.765Z,1.93
2018-12-24T18:39:01.600Z,1.87
2018-12-24T18:41:28.393Z,2.33
2018-12-24T18:43:55.136Z,1.50
2018-12-24T18:46:21.912Z,3.63
2018-12-24T18:48:48.660Z,2.40
2018-12-24T18:51:15.736Z,1.60
2018-12-24T18:53:42.500Z,2.00
2018-12-24T18:56:09.295Z,4.70
2018-12-24T18:58:36.042Z,1.90
2018-12-24T19:01:02.814Z,2.33
2018-12-24T19:03:29.572Z,2.90
2018-12-24T19:05:56.399Z,1.80
2018-12-24T19:08:23.140Z,2.10
2018-12-24T19:10:49.928Z,2.10
2018-12-24T19:13:16.681Z,2.00
2018-12-24T19:15:45.497Z,1.80
2018-12-24T19:18:12.305Z,2.60
2018-12-24T19:20:39.072Z,3.30
2018-12-24T19:23:05.840Z,2.90
2018-12-24T19:25:32.604Z,4.50
2018-12-24T19:27:59.355Z,2.70
2018-12-24T19:30:26.121Z,3.23
2018-12-24T19:32:52.866Z,4.03
2018-12-24T19:35:19.633Z,4.27
2018-12-24T19:37:46.421Z,5.70
2018-12-24T19:40:13.181Z,5.10
2018-12-24T19:42:39.941Z,5.37
2018-12-24T19:45:06.702Z,4.20
2018-12-24T19:47:33.492Z,6.77
2018-12-24T19:50:00.259Z,4.27
2018-12-24T19:52:27.029Z,3.33
2018-12-24T19:54:53.794Z,3.00
2018-12-24T19:57:20.569Z,3.57
2018-12-24T19:59:47.314Z,2.90
2018-12-24T20:02:14.092Z,2.37
2018-12-24T20:04:40.831Z,4.40
2018-12-24T20:07:07.635Z,4.37
2018-12-24T20:09:34.369Z,2.67
2018-12-24T20:12:03.547Z,3.60
2018-12-24T20:14:30.307Z,3.50
2018-12-24T20:16:57.072Z,3.60
2018-12-24T20:19:23.824Z,5.80
2018-12-24T20:21:50.612Z,5.33
2018-12-24T20:24:17.361Z,5.20
2018-12-24T20:26:44.133Z,6.63
2018-12-24T20:29:10.889Z,4.90
2018-12-24T20:31:37.669Z,4.73
2018-12-24T20:34:04.452Z,5.80
2018-12-24T20:36:31.230Z,7.03
2018-12-24T20:38:58.017Z,6.23
2018-12-24T20:41:24.857Z,3.37
2018-12-24T20:43:51.564Z,3.67
2018-12-24T20:46:18.332Z,4.87
2018-12-24T20:48:45.092Z,3.30
2018-12-24T20:51:16.166Z,2.83
2018-12-24T20:53:38.877Z,3.20
2018-12-24T20:56:05.624Z,3.17
2018-12-24T20:58:32.572Z,3.63
2018-12-24T21:00:59.320Z,2.87
2018-12-24T21:03:26.097Z,3.93
2018-12-24T21:05:52.871Z,3.07
2018-12-24T21:08:19.626Z,3.03
2018-12-24T21:10:46.377Z,2.80
2018-12-24T21:13:13.174Z,2.60
2018-12-24T21:15:39.939Z,3.53
2018-12-24T21:18:14.889Z,3.10
2018-12-24T21:20:33.464Z,3.87
2018-12-24T21:23:00.235Z,5.13
2018-12-24T21:25:27.107Z,3.70
2018-12-24T21:27:53.908Z,4.07
2018-12-24T21:30:20.653Z,3.00
2018-12-24T21:32:47.429Z,3.43
2018-12-24T21:35:14.189Z,2.73
2018-12-24T21:37:40.984Z,2.70
2018-12-24T21:40:07.748Z,2.80
2018-12-24T21:42:34.527Z,2.77
2018-12-24T21:45:01.293Z,4.70
2018-12-24T21:47:28.061Z,3.00
2018-12-24T21:49:54.816Z,4.90
2018-12-24T21:52:21.565Z,3.20
2018-12-24T21:54:48.305Z,3.50
2018-12-24T21:57:15.071Z,4.30
2018-12-24T21:59:41.820Z,2.90
2018-12-24T22:02:08.660Z,4.73
2018-12-24T22:04:35.421Z,3.10
2018-12-24T22:07:02.193Z,4.30
2018-12-24T22:09:28.956Z,4.10
2018-12-24T22:11:55.737Z,4.10
2018-12-24T22:14:22.500Z,3.97
2018-12-24T22:16:49.361Z,4.27
2018-12-24T22:19:16.137Z,4.00
2018-12-24T22:21:42.892Z,4.10
2018-12-24T22:24:09.657Z,4.30
2018-12-24T22:26:36.408Z,3.63
2018-12-24T22:29:03.186Z,3.90
2018-12-24T22:31:30.109Z,3.73
2018-12-24T22:33:56.885Z,3.50
2018-12-24T22:36:23.648Z,3.80
2018-12-24T22:38:50.453Z,4.70
2018-12-24T22:41:17.234Z,3.87
2018-12-24T22:43:44.017Z,5.33
2018-12-24T22:46:10.791Z,3.77
2018-12-24T22:48:40.883Z,3.73
2018-12-24T22:51:04.345Z,3.77
2018-12-24T22:53:31.137Z,5.27
2018-12-24T22:55:57.925Z,4.03
2018-12-24T22:58:24.733Z,3.57
2018-12-24T23:00:51.536Z,4.80
2018-12-24T23:03:18.337Z,3.87
2018-12-24T23:05:45.128Z,4.30
2018-12-24T23:08:12.027Z,4.10
2018-12-24T23:10:38.917Z,4.03
2018-12-24T23:13:05.700Z,5.10
2018-12-24T23:15:32.476Z,4.00
2018-12-24T23:17:59.293Z,4.67
2018-12-24T23:20:26.074Z,4.57
2018-12-24T23:22:52.904Z,4.30
2018-12-24T23:27:39.185Z,4.57
2018-12-24T23:30:06.509Z,4.30
2018-12-24T23:32:33.293Z,5.20
2018-12-24T23:35:00.149Z,5.28
2018-12-24T23:37:26.884Z,4.30
2018-12-24T23:39:53.653Z,4.40
2018-12-24T23:42:20.427Z,4.50
2018-12-24T23:44:47.220Z,4.90
2018-12-24T23:47:13.973Z,5.03
2018-12-24T23:49:40.773Z,5.23
2018-12-24T23:52:07.533Z,5.87
2018-12-24T23:54:34.356Z,4.20
2018-12-24T23:57:01.108Z,5.40
2018-12-24T23:59:27.888Z,4.90
